sensor_id;sensor_type;location;lat;lon;timestamp;P1;durP1;ratioP1;P2;durP2;ratioP2
7160;SDS011;3622;53.576;9.978;2023-03-31T00:02:21;19.33;;;3.70;;
7160;SDS011;3622;53.576;9.978;2023-03-31T00:04:47;12.17;;;4.17;;
7160;SDS011;3622;53.576;9.978;2023-03-31T00:07:17;10.80;;;3.10;;
7160;SDS011;3622;53.576;9.978;2023-03-31T00:09:46;11.57;;;3.30;;
7160;SDS011;3622;53.576;9.978;2023-03-31T00:12:13;13.20;;;3.90;;
7160;SDS011;3622;53.576;9.978;2023-03-31T00:14:39;20.90;;;4.20;;
7160;SDS011;3622;53.576;9.978;2023-03-31T00:17:06;10.63;;;3.60;;
7160;SDS011;3622;53.576;9.978;2023-03-31T00:19:32;14.20;;;3.37;;
7160;SDS011;3622;53.576;9.978;2023-03-31T00:21:58;8.40;;;3.20;;
7160;SDS011;3622;53.576;9.978;2023-03-31T00:24:26;19.93;;;3.80;;
7160;SDS011;3622;53.576;9.978;2023-03-31T00:26:52;14.57;;;2.80;;
7160;SDS011;3622;53.576;9.978;2023-03-31T00:29:18;9.83;;;3.10;;
7160;SDS011;3622;53.576;9.978;2023-03-31T00:31:44;14.83;;;3.53;;
7160;SDS011;3622;53.576;9.978;2023-03-31T00:34:10;14.97;;;3.10;;
7160;SDS011;3622;53.576;9.978;2023-03-31T00:36:36;13.63;;;3.03;;
7160;SDS011;3622;53.576;9.978;2023-03-31T00:39:11;13.63;;;2.43;;
7160;SDS011;3622;53.576;9.978;2023-03-31T00:41:38;9.70;;;3.13;;
7160;SDS011;3622;53.576;9.978;2023-03-31T00:44:06;7.83;;;2.80;;
7160;SDS011;3622;53.576;9.978;2023-03-31T00:46:33;18.30;;;4.23;;
7160;SDS011;3622;53.576;9.978;2023-03-31T00:49:01;14.10;;;3.27;;
7160;SDS011;3622;53.576;9.978;2023-03-31T00:51:28;13.27;;;4.40;;
7160;SDS011;3622;53.576;9.978;2023-03-31T00:53:56;11.40;;;3.30;;
7160;SDS011;3622;53.576;9.978;2023-03-31T00:56:27;9.53;;;3.70;;
7160;SDS011;3622;53.576;9.978;2023-03-31T00:58:54;11.13;;;3.23;;
7160;SDS011;3622;53.576;9.978;2023-03-31T01:01:22;7.40;;;2.70;;
7160;SDS011;3622;53.576;9.978;2023-03-31T01:03:48;5.83;;;2.97;;
7160;SDS011;3622;53.576;9.978;2023-03-31T01:06:15;6.60;;;2.73;;
7160;SDS011;3622;53.576;9.978;2023-03-31T01:08:44;15.37;;;3.27;;
7160;SDS011;3622;53.576;9.978;2023-03-31T01:11:12;6.57;;;2.30;;
7160;SDS011;3622;53.576;9.978;2023-03-31T01:13:40;12.53;;;3.17;;
7160;SDS011;3622;53.576;9.978;2023-03-31T01:16:07;17.53;;;3.20;;
7160;SDS011;3622;53.576;9.978;2023-03-31T01:18:33;11.43;;;2.53;;
7160;SDS011;3622;53.576;9.978;2023-03-31T01:21:23;11.27;;;2.50;;
7160;SDS011;3622;53.576;9.978;2023-03-31T01:37:14;16.17;;;3.13;;
7160;SDS011;3622;53.576;9.978;2023-03-31T01:42:34;11.37;;;2.53;;
7160;SDS011;3622;53.576;9.978;2023-03-31T01:47:37;11.83;;;2.60;;
7160;SDS011;3622;53.576;9.978;2023-03-31T01:50:05;7.80;;;2.43;;
7160;SDS011;3622;53.576;9.978;2023-03-31T02:00:01;13.70;;;2.93;;
7160;SDS011;3622;53.576;9.978;2023-03-31T02:02:30;17.23;;;3.63;;
7160;SDS011;3622;53.576;9.978;2023-03-31T02:05:00;10.33;;;2.77;;
7160;SDS011;3622;53.576;9.978;2023-03-31T02:07:33;14.83;;;3.37;;
7160;SDS011;3622;53.576;9.978;2023-03-31T02:10:00;11.50;;;3.40;;
7160;SDS011;3622;53.576;9.978;2023-03-31T02:12:29;9.67;;;2.97;;
7160;SDS011;3622;53.576;9.978;2023-03-31T02:14:55;12.27;;;3.20;;
7160;SDS011;3622;53.576;9.978;2023-03-31T02:17:23;10.17;;;3.17;;
7160;SDS011;3622;53.576;9.978;2023-03-31T02:19:57;13.00;;;3.90;;
7160;SDS011;3622;53.576;9.978;2023-03-31T02:22:24;12.10;;;3.50;;
7160;SDS011;3622;53.576;9.978;2023-03-31T02:24:51;14.27;;;3.70;;
7160;SDS011;3622;53.576;9.978;2023-03-31T02:27:22;8.67;;;3.63;;
7160;SDS011;3622;53.576;9.978;2023-03-31T02:29:49;10.30;;;3.87;;
7160;SDS011;3622;53.576;9.978;2023-03-31T02:32:36;13.07;;;3.97;;
7160;SDS011;3622;53.576;9.978;2023-03-31T02:35:02;12.73;;;4.40;;
7160;SDS011;3622;53.576;9.978;2023-03-31T02:37:28;12.57;;;4.30;;
7160;SDS011;3622;53.576;9.978;2023-03-31T02:39:55;7.70;;;4.03;;
7160;SDS011;3622;53.576;9.978;2023-03-31T02:42:22;12.13;;;6.47;;
7160;SDS011;3622;53.576;9.978;2023-03-31T02:44:48;13.40;;;4.67;;
7160;SDS011;3622;53.576;9.978;2023-03-31T02:47:15;19.07;;;4.73;;
7160;SDS011;3622;53.576;9.978;2023-03-31T02:49:43;17.20;;;4.00;;
7160;SDS011;3622;53.576;9.978;2023-03-31T03:00:32;10.33;;;4.20;;
7160;SDS011;3622;53.576;9.978;2023-03-31T03:08:26;13.33;;;4.50;;
7160;SDS011;3622;53.576;9.978;2023-03-31T03:13:34;8.67;;;4.27;;
7160;SDS011;3622;53.576;9.978;2023-03-31T03:16:04;9.73;;;4.13;;
7160;SDS011;3622;53.576;9.978;2023-03-31T03:18:33;13.80;;;5.03;;
7160;SDS011;3622;53.576;9.978;2023-03-31T03:20:59;12.43;;;4.20;;
7160;SDS011;3622;53.576;9.978;2023-03-31T03:23:25;6.90;;;3.50;;
7160;SDS011;3622;53.576;9.978;2023-03-31T03:25:50;10.90;;;3.83;;
7160;SDS011;3622;53.576;9.978;2023-03-31T03:28:16;8.17;;;4.20;;
7160;SDS011;3622;53.576;9.978;2023-03-31T03:30:42;14.70;;;4.93;;
7160;SDS011;3622;53.576;9.978;2023-03-31T03:33:08;6.27;;;3.80;;
7160;SDS011;3622;53.576;9.978;2023-03-31T03:35:34;9.53;;;4.43;;
7160;SDS011;3622;53.576;9.978;2023-03-31T03:38:00;4.57;;;4.13;;
7160;SDS011;3622;53.576;9.978;2023-03-31T03:40:26;12.50;;;4.40;;
7160;SDS011;3622;53.576;9.978;2023-03-31T03:42:52;12.83;;;4.03;;
7160;SDS011;3622;53.576;9.978;2023-03-31T03:45:18;12.80;;;4.40;;
7160;SDS011;3622;53.576;9.978;2023-03-31T03:47:44;11.67;;;4.43;;
7160;SDS011;3622;53.576;9.978;2023-03-31T03:50:10;12.87;;;4.93;;
7160;SDS011;3622;53.576;9.978;2023-03-31T03:52:37;9.30;;;5.40;;
7160;SDS011;3622;53.576;9.978;2023-03-31T03:55:04;9.47;;;5.27;;
7160;SDS011;3622;53.576;9.978;2023-03-31T03:57:30;17.60;;;7.80;;
7160;SDS011;3622;53.576;9.978;2023-03-31T03:59:56;16.30;;;6.20;;
7160;SDS011;3622;53.576;9.978;2023-03-31T04:02:22;10.77;;;5.00;;
7160;SDS011;3622;53.576;9.978;2023-03-31T04:04:48;12.70;;;5.47;;
7160;SDS011;3622;53.576;9.978;2023-03-31T04:07:14;11.47;;;6.03;;
7160;SDS011;3622;53.576;9.978;2023-03-31T04:09:41;13.80;;;5.30;;
7160;SDS011;3622;53.576;9.978;2023-03-31T04:12:07;11.97;;;5.27;;
7160;SDS011;3622;53.576;9.978;2023-03-31T04:14:33;12.30;;;5.20;;
7160;SDS011;3622;53.576;9.978;2023-03-31T04:16:59;14.03;;;5.20;;
7160;SDS011;3622;53.576;9.978;2023-03-31T04:19:27;16.57;;;5.47;;
7160;SDS011;3622;53.576;9.978;2023-03-31T04:21:53;10.30;;;4.90;;
7160;SDS011;3622;53.576;9.978;2023-03-31T04:24:26;17.60;;;5.57;;
7160;SDS011;3622;53.576;9.978;2023-03-31T04:26:56;12.10;;;5.33;;
7160;SDS011;3622;53.576;9.978;2023-03-31T04:29:22;9.77;;;4.70;;
7160;SDS011;3622;53.576;9.978;2023-03-31T04:31:51;12.13;;;5.13;;
7160;SDS011;3622;53.576;9.978;2023-03-31T04:34:18;13.40;;;5.07;;
7160;SDS011;3622;53.576;9.978;2023-03-31T04:36:46;9.73;;;5.37;;
7160;SDS011;3622;53.576;9.978;2023-03-31T04:39:13;9.50;;;5.20;;
7160;SDS011;3622;53.576;9.978;2023-03-31T04:41:39;12.70;;;5.90;;
7160;SDS011;3622;53.576;9.978;2023-03-31T04:44:05;10.83;;;5.43;;
7160;SDS011;3622;53.576;9.978;2023-03-31T04:46:31;14.33;;;6.33;;
7160;SDS011;3622;53.576;9.978;2023-03-31T04:48:57;12.83;;;6.03;;
7160;SDS011;3622;53.576;9.978;2023-03-31T04:51:24;13.37;;;6.50;;
7160;SDS011;3622;53.576;9.978;2023-03-31T04:53:50;13.67;;;6.80;;
7160;SDS011;3622;53.576;9.978;2023-03-31T04:56:16;16.30;;;5.97;;
7160;SDS011;3622;53.576;9.978;2023-03-31T04:58:42;21.80;;;6.93;;
7160;SDS011;3622;53.576;9.978;2023-03-31T05:01:08;12.83;;;6.10;;
7160;SDS011;3622;53.576;9.978;2023-03-31T05:03:37;14.43;;;6.73;;
7160;SDS011;3622;53.576;9.978;2023-03-31T05:06:03;20.63;;;7.57;;
7160;SDS011;3622;53.576;9.978;2023-03-31T05:08:29;12.50;;;6.90;;
7160;SDS011;3622;53.576;9.978;2023-03-31T05:10:56;18.50;;;6.90;;
7160;SDS011;3622;53.576;9.978;2023-03-31T05:13:22;13.70;;;7.60;;
7160;SDS011;3622;53.576;9.978;2023-03-31T05:15:48;15.30;;;7.93;;
7160;SDS011;3622;53.576;9.978;2023-03-31T05:18:15;13.73;;;6.30;;
7160;SDS011;3622;53.576;9.978;2023-03-31T05:20:42;14.27;;;7.20;;
7160;SDS011;3622;53.576;9.978;2023-03-31T05:23:08;15.17;;;6.67;;
7160;SDS011;3622;53.576;9.978;2023-03-31T05:25:34;15.93;;;6.83;;
7160;SDS011;3622;53.576;9.978;2023-03-31T05:28:00;15.83;;;7.37;;
7160;SDS011;3622;53.576;9.978;2023-03-31T05:30:26;14.97;;;6.70;;
7160;SDS011;3622;53.576;9.978;2023-03-31T05:32:53;16.17;;;7.00;;
7160;SDS011;3622;53.576;9.978;2023-03-31T05:35:19;18.33;;;7.73;;
7160;SDS011;3622;53.576;9.978;2023-03-31T05:37:46;13.77;;;6.77;;
7160;SDS011;3622;53.576;9.978;2023-03-31T05:40:12;13.27;;;7.10;;
7160;SDS011;3622;53.576;9.978;2023-03-31T05:42:38;14.57;;;7.10;;
7160;SDS011;3622;53.576;9.978;2023-03-31T05:45:06;16.37;;;7.07;;
7160;SDS011;3622;53.576;9.978;2023-03-31T05:47:32;15.20;;;6.57;;
7160;SDS011;3622;53.576;9.978;2023-03-31T05:49:58;12.70;;;6.77;;
7160;SDS011;3622;53.576;9.978;2023-03-31T05:52:24;9.70;;;6.27;;
7160;SDS011;3622;53.576;9.978;2023-03-31T05:54:50;19.87;;;6.43;;
7160;SDS011;3622;53.576;9.978;2023-03-31T05:57:16;11.37;;;5.57;;
7160;SDS011;3622;53.576;9.978;2023-03-31T05:59:42;16.63;;;7.70;;
7160;SDS011;3622;53.576;9.978;2023-03-31T06:02:10;14.30;;;6.30;;
7160;SDS011;3622;53.576;9.978;2023-03-31T06:04:37;17.30;;;6.77;;
7160;SDS011;3622;53.576;9.978;2023-03-31T06:07:03;10.00;;;5.70;;
7160;SDS011;3622;53.576;9.978;2023-03-31T06:09:29;15.93;;;6.13;;
7160;SDS011;3622;53.576;9.978;2023-03-31T06:11:55;16.80;;;5.90;;
7160;SDS011;3622;53.576;9.978;2023-03-31T06:14:21;10.60;;;5.80;;
7160;SDS011;3622;53.576;9.978;2023-03-31T06:16:47;14.40;;;6.00;;
7160;SDS011;3622;53.576;9.978;2023-03-31T06:19:13;11.97;;;6.20;;
7160;SDS011;3622;53.576;9.978;2023-03-31T06:21:39;16.27;;;5.57;;
7160;SDS011;3622;53.576;9.978;2023-03-31T06:24:07;10.80;;;5.97;;
7160;SDS011;3622;53.576;9.978;2023-03-31T06:26:33;15.60;;;5.40;;
7160;SDS011;3622;53.576;9.978;2023-03-31T06:28:59;17.97;;;5.90;;
7160;SDS011;3622;53.576;9.978;2023-03-31T06:31:25;9.70;;;5.47;;
7160;SDS011;3622;53.576;9.978;2023-03-31T06:33:51;11.40;;;4.87;;
7160;SDS011;3622;53.576;9.978;2023-03-31T06:36:18;9.83;;;5.50;;
7160;SDS011;3622;53.576;9.978;2023-03-31T06:38:45;8.80;;;5.30;;
7160;SDS011;3622;53.576;9.978;2023-03-31T06:41:12;14.33;;;5.20;;
7160;SDS011;3622;53.576;9.978;2023-03-31T06:43:38;10.07;;;6.10;;
7160;SDS011;3622;53.576;9.978;2023-03-31T06:46:04;12.10;;;5.17;;
7160;SDS011;3622;53.576;9.978;2023-03-31T06:48:31;12.03;;;5.30;;
7160;SDS011;3622;53.576;9.978;2023-03-31T06:50:58;11.93;;;4.80;;
7160;SDS011;3622;53.576;9.978;2023-03-31T06:53:25;9.73;;;5.50;;
7160;SDS011;3622;53.576;9.978;2023-03-31T06:55:51;8.43;;;4.60;;
7160;SDS011;3622;53.576;9.978;2023-03-31T06:58:17;15.13;;;5.77;;
7160;SDS011;3622;53.576;9.978;2023-03-31T07:00:43;9.60;;;4.90;;
7160;SDS011;3622;53.576;9.978;2023-03-31T07:03:12;15.57;;;6.17;;
7160;SDS011;3622;53.576;9.978;2023-03-31T07:05:40;11.17;;;4.90;;
7160;SDS011;3622;53.576;9.978;2023-03-31T07:08:06;10.77;;;5.60;;
7160;SDS011;3622;53.576;9.978;2023-03-31T07:10:32;9.00;;;5.47;;
7160;SDS011;3622;53.576;9.978;2023-03-31T07:12:58;11.20;;;4.87;;
7160;SDS011;3622;53.576;9.978;2023-03-31T07:15:25;8.20;;;5.30;;
7160;SDS011;3622;53.576;9.978;2023-03-31T07:17:54;11.30;;;5.80;;
7160;SDS011;3622;53.576;9.978;2023-03-31T07:20:25;11.13;;;6.13;;
7160;SDS011;3622;53.576;9.978;2023-03-31T07:22:51;13.07;;;4.70;;
7160;SDS011;3622;53.576;9.978;2023-03-31T07:25:17;12.67;;;5.57;;
7160;SDS011;3622;53.576;9.978;2023-03-31T07:27:43;12.53;;;5.17;;
7160;SDS011;3622;53.576;9.978;2023-03-31T07:30:11;11.80;;;4.57;;
7160;SDS011;3622;53.576;9.978;2023-03-31T07:32:38;9.67;;;5.10;;
7160;SDS011;3622;53.576;9.978;2023-03-31T07:35:08;6.43;;;4.57;;
7160;SDS011;3622;53.576;9.978;2023-03-31T07:37:35;10.27;;;5.60;;
7160;SDS011;3622;53.576;9.978;2023-03-31T07:40:02;9.70;;;5.10;;
7160;SDS011;3622;53.576;9.978;2023-03-31T07:42:29;6.93;;;4.20;;
7160;SDS011;3622;53.576;9.978;2023-03-31T07:44:55;10.13;;;5.40;;
7160;SDS011;3622;53.576;9.978;2023-03-31T07:47:21;14.17;;;5.73;;
7160;SDS011;3622;53.576;9.978;2023-03-31T07:49:49;5.80;;;4.50;;
7160;SDS011;3622;53.576;9.978;2023-03-31T07:52:15;11.03;;;5.97;;
7160;SDS011;3622;53.576;9.978;2023-03-31T07:54:42;9.47;;;4.53;;
7160;SDS011;3622;53.576;9.978;2023-03-31T07:57:08;10.77;;;5.33;;
7160;SDS011;3622;53.576;9.978;2023-03-31T07:59:34;5.17;;;3.83;;
7160;SDS011;3622;53.576;9.978;2023-03-31T08:02:00;12.63;;;4.80;;
7160;SDS011;3622;53.576;9.978;2023-03-31T08:04:26;7.80;;;4.10;;
7160;SDS011;3622;53.576;9.978;2023-03-31T08:06:52;6.53;;;4.30;;
7160;SDS011;3622;53.576;9.978;2023-03-31T08:09:18;6.77;;;4.33;;
7160;SDS011;3622;53.576;9.978;2023-03-31T08:11:46;14.10;;;5.97;;
7160;SDS011;3622;53.576;9.978;2023-03-31T08:14:12;11.43;;;5.80;;
7160;SDS011;3622;53.576;9.978;2023-03-31T08:16:38;5.10;;;4.60;;
7160;SDS011;3622;53.576;9.978;2023-03-31T08:19:04;6.00;;;4.40;;
7160;SDS011;3622;53.576;9.978;2023-03-31T08:21:30;18.23;;;5.07;;
7160;SDS011;3622;53.576;9.978;2023-03-31T08:23:56;4.60;;;4.20;;
7160;SDS011;3622;53.576;9.978;2023-03-31T08:26:22;8.30;;;4.73;;
7160;SDS011;3622;53.576;9.978;2023-03-31T08:28:49;7.03;;;4.23;;
7160;SDS011;3622;53.576;9.978;2023-03-31T08:31:15;5.23;;;3.80;;
7160;SDS011;3622;53.576;9.978;2023-03-31T08:33:42;6.23;;;4.63;;
7160;SDS011;3622;53.576;9.978;2023-03-31T08:36:08;6.97;;;4.00;;
7160;SDS011;3622;53.576;9.978;2023-03-31T08:38:35;6.73;;;4.40;;
7160;SDS011;3622;53.576;9.978;2023-03-31T08:41:02;6.60;;;4.20;;
7160;SDS011;3622;53.576;9.978;2023-03-31T08:43:30;4.67;;;3.90;;
7160;SDS011;3622;53.576;9.978;2023-03-31T08:45:56;4.73;;;4.30;;
7160;SDS011;3622;53.576;9.978;2023-03-31T08:48:33;9.23;;;4.17;;
7160;SDS011;3622;53.576;9.978;2023-03-31T08:51:08;8.90;;;3.53;;
7160;SDS011;3622;53.576;9.978;2023-03-31T08:53:36;8.30;;;4.60;;
7160;SDS011;3622;53.576;9.978;2023-03-31T08:56:05;6.03;;;3.97;;
7160;SDS011;3622;53.576;9.978;2023-03-31T08:58:38;6.30;;;3.90;;
7160;SDS011;3622;53.576;9.978;2023-03-31T09:03:49;3.70;;;3.37;;
7160;SDS011;3622;53.576;9.978;2023-03-31T09:06:26;7.20;;;3.30;;
7160;SDS011;3622;53.576;9.978;2023-03-31T09:08:57;4.13;;;3.67;;
7160;SDS011;3622;53.576;9.978;2023-03-31T09:11:37;9.67;;;3.97;;
7160;SDS011;3622;53.576;9.978;2023-03-31T09:14:20;8.23;;;3.67;;
7160;SDS011;3622;53.576;9.978;2023-03-31T09:19:17;19.53;;;10.27;;
7160;SDS011;3622;53.576;9.978;2023-03-31T09:21:45;4.17;;;3.77;;
7160;SDS011;3622;53.576;9.978;2023-03-31T09:24:22;11.00;;;6.43;;
7160;SDS011;3622;53.576;9.978;2023-03-31T09:26:53;8.93;;;3.87;;
7160;SDS011;3622;53.576;9.978;2023-03-31T09:30:03;3.23;;;3.03;;
7160;SDS011;3622;53.576;9.978;2023-03-31T09:32:13;3.33;;;3.00;;
7160;SDS011;3622;53.576;9.978;2023-03-31T09:34:40;3.47;;;3.17;;
7160;SDS011;3622;53.576;9.978;2023-03-31T09:37:07;10.63;;;3.20;;
7160;SDS011;3622;53.576;9.978;2023-03-31T09:39:34;6.40;;;3.07;;
7160;SDS011;3622;53.576;9.978;2023-03-31T09:42:00;2.40;;;2.20;;
7160;SDS011;3622;53.576;9.978;2023-03-31T09:44:27;2.83;;;2.63;;
7160;SDS011;3622;53.576;9.978;2023-03-31T09:46:58;3.37;;;2.83;;
7160;SDS011;3622;53.576;9.978;2023-03-31T09:49:27;3.97;;;3.03;;
7160;SDS011;3622;53.576;9.978;2023-03-31T09:51:59;3.10;;;2.83;;
7160;SDS011;3622;53.576;9.978;2023-03-31T09:54:43;4.30;;;3.10;;
7160;SDS011;3622;53.576;9.978;2023-03-31T09:57:15;4.57;;;2.97;;
7160;SDS011;3622;53.576;9.978;2023-03-31T09:59:49;6.70;;;3.80;;
7160;SDS011;3622;53.576;9.978;2023-03-31T10:02:36;4.10;;;3.70;;
7160;SDS011;3622;53.576;9.978;2023-03-31T10:05:02;6.77;;;2.63;;
7160;SDS011;3622;53.576;9.978;2023-03-31T10:07:29;4.17;;;3.77;;
7160;SDS011;3622;53.576;9.978;2023-03-31T10:09:55;4.70;;;3.40;;
7160;SDS011;3622;53.576;9.978;2023-03-31T10:12:23;5.97;;;3.43;;
7160;SDS011;3622;53.576;9.978;2023-03-31T10:14:50;4.10;;;3.00;;
7160;SDS011;3622;53.576;9.978;2023-03-31T10:17:21;4.60;;;3.23;;
7160;SDS011;3622;53.576;9.978;2023-03-31T10:19:57;4.10;;;2.73;;
7160;SDS011;3622;53.576;9.978;2023-03-31T10:22:28;4.30;;;3.13;;
7160;SDS011;3622;53.576;9.978;2023-03-31T10:24:56;4.00;;;3.20;;
7160;SDS011;3622;53.576;9.978;2023-03-31T10:27:32;5.20;;;2.90;;
7160;SDS011;3622;53.576;9.978;2023-03-31T10:29:58;3.60;;;3.30;;
7160;SDS011;3622;53.576;9.978;2023-03-31T10:32:31;8.53;;;3.93;;
7160;SDS011;3622;53.576;9.978;2023-03-31T10:35:02;16.57;;;3.63;;
7160;SDS011;3622;53.576;9.978;2023-03-31T10:37:29;4.23;;;3.77;;
7160;SDS011;3622;53.576;9.978;2023-03-31T10:39:59;4.50;;;2.97;;
7160;SDS011;3622;53.576;9.978;2023-03-31T10:42:25;4.70;;;2.90;;
7160;SDS011;3622;53.576;9.978;2023-03-31T10:45:09;4.70;;;3.17;;
7160;SDS011;3622;53.576;9.978;2023-03-31T10:47:35;6.20;;;3.50;;
7160;SDS011;3622;53.576;9.978;2023-03-31T10:50:08;6.70;;;3.30;;
7160;SDS011;3622;53.576;9.978;2023-03-31T10:52:42;4.43;;;3.77;;
7160;SDS011;3622;53.576;9.978;2023-03-31T10:55:12;3.03;;;2.57;;
7160;SDS011;3622;53.576;9.978;2023-03-31T10:57:47;6.90;;;3.37;;
7160;SDS011;3622;53.576;9.978;2023-03-31T11:00:17;3.00;;;2.80;;
7160;SDS011;3622;53.576;9.978;2023-03-31T11:21:17;8.13;;;3.10;;
7160;SDS011;3622;53.576;9.978;2023-03-31T11:23:55;2.77;;;2.57;;
7160;SDS011;3622;53.576;9.978;2023-03-31T11:26:35;3.00;;;2.77;;
7160;SDS011;3622;53.576;9.978;2023-03-31T11:31:32;2.80;;;2.40;;
7160;SDS011;3622;53.576;9.978;2023-03-31T11:34:01;2.70;;;2.10;;
7160;SDS011;3622;53.576;9.978;2023-03-31T11:41:52;5.10;;;2.07;;
7160;SDS011;3622;53.576;9.978;2023-03-31T11:44:20;3.10;;;2.80;;
7160;SDS011;3622;53.576;9.978;2023-03-31T11:46:53;8.40;;;2.50;;
7160;SDS011;3622;53.576;9.978;2023-03-31T11:54:27;3.53;;;3.00;;
7160;SDS011;3622;53.576;9.978;2023-03-31T11:56:56;4.97;;;2.20;;
7160;SDS011;3622;53.576;9.978;2023-03-31T11:59:22;8.07;;;2.40;;
7160;SDS011;3622;53.576;9.978;2023-03-31T12:01:56;2.80;;;2.37;;
7160;SDS011;3622;53.576;9.978;2023-03-31T12:06:56;3.87;;;3.37;;
7160;SDS011;3622;53.576;9.978;2023-03-31T12:09:28;2.17;;;1.97;;
7160;SDS011;3622;53.576;9.978;2023-03-31T12:12:04;1.80;;;1.70;;
7160;SDS011;3622;53.576;9.978;2023-03-31T12:17:04;4.93;;;3.00;;
7160;SDS011;3622;53.576;9.978;2023-03-31T12:19:35;4.47;;;3.00;;
7160;SDS011;3622;53.576;9.978;2023-03-31T12:22:11;3.13;;;2.10;;
7160;SDS011;3622;53.576;9.978;2023-03-31T12:24:39;2.87;;;2.53;;
7160;SDS011;3622;53.576;9.978;2023-03-31T12:29:37;3.77;;;3.10;;
7160;SDS011;3622;53.576;9.978;2023-03-31T12:32:06;4.03;;;3.67;;
7160;SDS011;3622;53.576;9.978;2023-03-31T12:34:35;5.23;;;2.83;;
7160;SDS011;3622;53.576;9.978;2023-03-31T12:37:15;6.63;;;2.87;;
7160;SDS011;3622;53.576;9.978;2023-03-31T12:45:12;5.40;;;2.93;;
7160;SDS011;3622;53.576;9.978;2023-03-31T12:48:02;4.13;;;3.07;;
7160;SDS011;3622;53.576;9.978;2023-03-31T12:53:25;4.47;;;3.93;;
7160;SDS011;3622;53.576;9.978;2023-03-31T12:55:55;12.23;;;3.43;;
7160;SDS011;3622;53.576;9.978;2023-03-31T13:01:02;3.87;;;3.57;;
7160;SDS011;3622;53.576;9.978;2023-03-31T13:06:00;3.60;;;3.40;;
7160;SDS011;3622;53.576;9.978;2023-03-31T13:11:11;7.70;;;3.73;;
7160;SDS011;3622;53.576;9.978;2023-03-31T13:13:40;4.70;;;3.90;;
7160;SDS011;3622;53.576;9.978;2023-03-31T13:16:06;8.37;;;4.37;;
7160;SDS011;3622;53.576;9.978;2023-03-31T13:18:32;9.70;;;4.50;;
7160;SDS011;3622;53.576;9.978;2023-03-31T13:23:24;3.50;;;3.27;;
7160;SDS011;3622;53.576;9.978;2023-03-31T13:25:51;10.53;;;6.20;;
7160;SDS011;3622;53.576;9.978;2023-03-31T13:30:59;5.23;;;4.63;;
7160;SDS011;3622;53.576;9.978;2023-03-31T13:33:27;4.30;;;4.00;;
7160;SDS011;3622;53.576;9.978;2023-03-31T13:36:11;5.10;;;3.87;;
7160;SDS011;3622;53.576;9.978;2023-03-31T13:38:54;4.17;;;3.77;;
7160;SDS011;3622;53.576;9.978;2023-03-31T13:46:59;9.23;;;3.70;;
7160;SDS011;3622;53.576;9.978;2023-03-31T13:49:54;7.60;;;4.53;;
7160;SDS011;3622;53.576;9.978;2023-03-31T13:52:19;5.77;;;4.07;;
7160;SDS011;3622;53.576;9.978;2023-03-31T13:54:57;6.60;;;3.63;;
7160;SDS011;3622;53.576;9.978;2023-03-31T13:57:29;4.03;;;3.70;;
7160;SDS011;3622;53.576;9.978;2023-03-31T14:00:02;4.50;;;4.00;;
7160;SDS011;3622;53.576;9.978;2023-03-31T14:02:45;4.03;;;3.20;;
7160;SDS011;3622;53.576;9.978;2023-03-31T14:05:27;6.77;;;4.40;;
7160;SDS011;3622;53.576;9.978;2023-03-31T14:07:55;4.30;;;3.90;;
7160;SDS011;3622;53.576;9.978;2023-03-31T14:12:51;8.67;;;3.10;;
7160;SDS011;3622;53.576;9.978;2023-03-31T14:15:18;3.73;;;3.40;;
7160;SDS011;3622;53.576;9.978;2023-03-31T14:17:45;2.90;;;2.70;;
7160;SDS011;3622;53.576;9.978;2023-03-31T14:22:47;3.00;;;2.77;;
7160;SDS011;3622;53.576;9.978;2023-03-31T14:35:27;4.00;;;3.53;;
7160;SDS011;3622;53.576;9.978;2023-03-31T14:37:55;3.80;;;3.40;;
7160;SDS011;3622;53.576;9.978;2023-03-31T14:40:21;3.40;;;3.10;;
7160;SDS011;3622;53.576;9.978;2023-03-31T14:42:48;3.70;;;3.40;;
7160;SDS011;3622;53.576;9.978;2023-03-31T14:45:15;5.17;;;2.60;;
7160;SDS011;3622;53.576;9.978;2023-03-31T14:47:41;2.77;;;2.60;;
7160;SDS011;3622;53.576;9.978;2023-03-31T14:50:12;9.97;;;6.93;;
7160;SDS011;3622;53.576;9.978;2023-03-31T14:52:39;3.17;;;2.83;;
7160;SDS011;3622;53.576;9.978;2023-03-31T14:55:14;4.30;;;3.87;;
7160;SDS011;3622;53.576;9.978;2023-03-31T14:57:40;2.13;;;2.03;;
7160;SDS011;3622;53.576;9.978;2023-03-31T15:00:08;2.90;;;2.70;;
7160;SDS011;3622;53.576;9.978;2023-03-31T15:02:39;4.57;;;4.13;;
7160;SDS011;3622;53.576;9.978;2023-03-31T15:05:07;3.20;;;3.00;;
7160;SDS011;3622;53.576;9.978;2023-03-31T15:07:34;2.73;;;2.40;;
7160;SDS011;3622;53.576;9.978;2023-03-31T15:10:01;3.30;;;3.10;;
7160;SDS011;3622;53.576;9.978;2023-03-31T15:12:27;3.13;;;2.93;;
7160;SDS011;3622;53.576;9.978;2023-03-31T15:14:55;2.53;;;2.40;;
7160;SDS011;3622;53.576;9.978;2023-03-31T15:17:23;4.07;;;2.83;;
7160;SDS011;3622;53.576;9.978;2023-03-31T15:19:54;3.60;;;3.07;;
7160;SDS011;3622;53.576;9.978;2023-03-31T15:22:21;1.87;;;1.50;;
7160;SDS011;3622;53.576;9.978;2023-03-31T15:24:47;1.73;;;1.63;;
7160;SDS011;3622;53.576;9.978;2023-03-31T15:27:14;2.20;;;2.10;;
7160;SDS011;3622;53.576;9.978;2023-03-31T15:29:43;4.00;;;3.30;;
7160;SDS011;3622;53.576;9.978;2023-03-31T15:32:16;8.73;;;6.40;;
7160;SDS011;3622;53.576;9.978;2023-03-31T15:34:46;4.17;;;3.80;;
7160;SDS011;3622;53.576;9.978;2023-03-31T15:37:12;3.57;;;3.30;;
7160;SDS011;3622;53.576;9.978;2023-03-31T15:39:38;5.00;;;3.00;;
7160;SDS011;3622;53.576;9.978;2023-03-31T15:42:09;5.83;;;2.70;;
7160;SDS011;3622;53.576;9.978;2023-03-31T15:47:17;2.87;;;2.60;;
7160;SDS011;3622;53.576;9.978;2023-03-31T15:49:51;3.57;;;3.27;;
7160;SDS011;3622;53.576;9.978;2023-03-31T15:52:28;1.53;;;1.43;;
7160;SDS011;3622;53.576;9.978;2023-03-31T15:54:54;1.73;;;1.63;;
7160;SDS011;3622;53.576;9.978;2023-03-31T15:57:20;4.03;;;3.73;;
7160;SDS011;3622;53.576;9.978;2023-03-31T15:59:55;3.13;;;2.60;;
7160;SDS011;3622;53.576;9.978;2023-03-31T16:02:22;3.87;;;3.20;;
7160;SDS011;3622;53.576;9.978;2023-03-31T16:04:50;4.27;;;3.87;;
7160;SDS011;3622;53.576;9.978;2023-03-31T16:07:21;4.73;;;3.73;;
7160;SDS011;3622;53.576;9.978;2023-03-31T16:14:53;7.07;;;3.90;;
7160;SDS011;3622;53.576;9.978;2023-03-31T16:20:08;6.30;;;3.90;;
7160;SDS011;3622;53.576;9.978;2023-03-31T16:22:40;2.57;;;2.37;;
7160;SDS011;3622;53.576;9.978;2023-03-31T16:25:10;3.23;;;3.00;;
7160;SDS011;3622;53.576;9.978;2023-03-31T16:27:38;3.40;;;2.87;;
7160;SDS011;3622;53.576;9.978;2023-03-31T16:30:06;3.23;;;3.03;;
7160;SDS011;3622;53.576;9.978;2023-03-31T16:32:32;3.00;;;2.80;;
7160;SDS011;3622;53.576;9.978;2023-03-31T16:34:59;7.00;;;3.17;;
7160;SDS011;3622;53.576;9.978;2023-03-31T16:37:25;6.33;;;2.40;;
7160;SDS011;3622;53.576;9.978;2023-03-31T16:39:52;3.50;;;3.27;;
7160;SDS011;3622;53.576;9.978;2023-03-31T16:42:18;3.13;;;1.97;;
7160;SDS011;3622;53.576;9.978;2023-03-31T16:44:45;3.60;;;3.10;;
7160;SDS011;3622;53.576;9.978;2023-03-31T16:47:11;5.33;;;4.80;;
7160;SDS011;3622;53.576;9.978;2023-03-31T16:49:37;7.73;;;6.40;;
7160;SDS011;3622;53.576;9.978;2023-03-31T16:52:03;6.77;;;6.03;;
7160;SDS011;3622;53.576;9.978;2023-03-31T16:54:30;4.13;;;3.70;;
7160;SDS011;3622;53.576;9.978;2023-03-31T16:56:56;6.43;;;5.57;;
7160;SDS011;3622;53.576;9.978;2023-03-31T16:59:23;6.73;;;5.60;;
7160;SDS011;3622;53.576;9.978;2023-03-31T17:01:49;8.60;;;5.37;;
7160;SDS011;3622;53.576;9.978;2023-03-31T17:04:16;4.20;;;3.90;;
7160;SDS011;3622;53.576;9.978;2023-03-31T17:06:42;6.20;;;4.43;;
7160;SDS011;3622;53.576;9.978;2023-03-31T17:09:08;4.33;;;3.67;;
7160;SDS011;3622;53.576;9.978;2023-03-31T17:11:34;7.13;;;4.27;;
7160;SDS011;3622;53.576;9.978;2023-03-31T17:14:01;4.53;;;4.17;;
7160;SDS011;3622;53.576;9.978;2023-03-31T17:16:29;5.30;;;4.30;;
7160;SDS011;3622;53.576;9.978;2023-03-31T17:18:55;6.30;;;3.90;;
7160;SDS011;3622;53.576;9.978;2023-03-31T17:21:21;5.03;;;4.53;;
7160;SDS011;3622;53.576;9.978;2023-03-31T17:23:47;5.93;;;4.00;;
7160;SDS011;3622;53.576;9.978;2023-03-31T17:26:13;14.20;;;9.87;;
7160;SDS011;3622;53.576;9.978;2023-03-31T17:28:40;18.33;;;10.03;;
7160;SDS011;3622;53.576;9.978;2023-03-31T17:31:13;15.33;;;10.30;;
7160;SDS011;3622;53.576;9.978;2023-03-31T17:33:39;6.50;;;5.63;;
7160;SDS011;3622;53.576;9.978;2023-03-31T17:36:06;7.97;;;6.33;;
7160;SDS011;3622;53.576;9.978;2023-03-31T17:38:32;7.80;;;5.23;;